sensor_id;sensor_type;location;lat;lon;timestamp;P1;durP1;ratioP1;P2;durP2;ratioP2
26946;SDS011;14501;52.282;10.560;2023-05-29T00:00:30;7.53;;;3.30;;
26946;SDS011;14501;52.282;10.560;2023-05-29T00:02:56;7.72;;;3.30;;
26946;SDS011;14501;52.282;10.560;2023-05-29T00:05:22;10.95;;;3.67;;
26946;SDS011;14501;52.282;10.560;2023-05-29T00:07:48;4.60;;;3.22;;
26946;SDS011;14501;52.282;10.560;2023-05-29T00:10:15;7.90;;;3.90;;
26946;SDS011;14501;52.282;10.560;2023-05-29T00:12:41;6.13;;;3.10;;
26946;SDS011;14501;52.282;10.560;2023-05-29T00:15:08;7.22;;;4.00;;
26946;SDS011;14501;52.282;10.560;2023-05-29T00:17:35;7.80;;;3.67;;
26946;SDS011;14501;52.282;10.560;2023-05-29T00:20:02;9.10;;;4.30;;
26946;SDS011;14501;52.282;10.560;2023-05-29T00:22:37;7.82;;;3.83;;
26946;SDS011;14501;52.282;10.560;2023-05-29T00:25:06;8.63;;;4.18;;
26946;SDS011;14501;52.282;10.560;2023-05-29T00:27:32;7.63;;;3.88;;
26946;SDS011;14501;52.282;10.560;2023-05-29T00:29:59;7.03;;;3.75;;
26946;SDS011;14501;52.282;10.560;2023-05-29T00:32:25;9.02;;;4.30;;
26946;SDS011;14501;52.282;10.560;2023-05-29T00:34:52;8.43;;;4.22;;
26946;SDS011;14501;52.282;10.560;2023-05-29T00:37:18;8.85;;;3.95;;
26946;SDS011;14501;52.282;10.560;2023-05-29T00:39:46;6.95;;;4.25;;
26946;SDS011;14501;52.282;10.560;2023-05-29T00:42:12;8.80;;;3.85;;
26946;SDS011;14501;52.282;10.560;2023-05-29T00:44:38;7.85;;;4.40;;
26946;SDS011;14501;52.282;10.560;2023-05-29T00:47:03;9.52;;;4.35;;
26946;SDS011;14501;52.282;10.560;2023-05-29T00:49:29;10.50;;;4.72;;
26946;SDS011;14501;52.282;10.560;2023-05-29T00:51:55;11.77;;;4.75;;
26946;SDS011;14501;52.282;10.560;2023-05-29T00:54:21;8.13;;;4.45;;
26946;SDS011;14501;52.282;10.560;2023-05-29T00:56:53;8.60;;;4.15;;
26946;SDS011;14501;52.282;10.560;2023-05-29T00:59:20;7.60;;;3.78;;
26946;SDS011;14501;52.282;10.560;2023-05-29T01:01:48;9.02;;;4.20;;
26946;SDS011;14501;52.282;10.560;2023-05-29T01:04:15;10.07;;;4.43;;
26946;SDS011;14501;52.282;10.560;2023-05-29T01:06:41;8.32;;;4.68;;
26946;SDS011;14501;52.282;10.560;2023-05-29T01:09:07;6.97;;;4.45;;
26946;SDS011;14501;52.282;10.560;2023-05-29T01:11:41;7.55;;;4.15;;
26946;SDS011;14501;52.282;10.560;2023-05-29T01:20:27;9.00;;;4.65;;
26946;SDS011;14501;52.282;10.560;2023-05-29T01:29:00;9.68;;;4.78;;
26946;SDS011;14501;52.282;10.560;2023-05-29T01:31:28;7.60;;;4.38;;
26946;SDS011;14501;52.282;10.560;2023-05-29T01:33:55;9.45;;;4.40;;
26946;SDS011;14501;52.282;10.560;2023-05-29T01:36:23;8.63;;;4.43;;
26946;SDS011;14501;52.282;10.560;2023-05-29T01:38:49;9.77;;;4.20;;
26946;SDS011;14501;52.282;10.560;2023-05-29T01:41:16;10.60;;;4.30;;
26946;SDS011;14501;52.282;10.560;2023-05-29T01:43:43;6.68;;;4.22;;
26946;SDS011;14501;52.282;10.560;2023-05-29T01:46:11;10.65;;;4.30;;
26946;SDS011;14501;52.282;10.560;2023-05-29T01:48:38;6.10;;;3.55;;
26946;SDS011;14501;52.282;10.560;2023-05-29T01:51:06;7.65;;;3.80;;
26946;SDS011;14501;52.282;10.560;2023-05-29T01:53:32;7.15;;;3.35;;
26946;SDS011;14501;52.282;10.560;2023-05-29T01:55:58;6.03;;;3.17;;
26946;SDS011;14501;52.282;10.560;2023-05-29T01:58:23;6.50;;;3.20;;
26946;SDS011;14501;52.282;10.560;2023-05-29T02:00:51;8.43;;;3.83;;
26946;SDS011;14501;52.282;10.560;2023-05-29T02:03:17;8.70;;;3.47;;
26946;SDS011;14501;52.282;10.560;2023-05-29T02:05:43;7.07;;;3.50;;
26946;SDS011;14501;52.282;10.560;2023-05-29T02:08:08;6.95;;;3.63;;
26946;SDS011;14501;52.282;10.560;2023-05-29T02:10:34;6.30;;;4.00;;
26946;SDS011;14501;52.282;10.560;2023-05-29T02:12:59;7.65;;;3.88;;
26946;SDS011;14501;52.282;10.560;2023-05-29T02:15:25;8.90;;;4.05;;
26946;SDS011;14501;52.282;10.560;2023-05-29T02:17:51;7.75;;;3.63;;
26946;SDS011;14501;52.282;10.560;2023-05-29T02:20:17;7.10;;;3.55;;
26946;SDS011;14501;52.282;10.560;2023-05-29T02:22:42;5.75;;;3.70;;
26946;SDS011;14501;52.282;10.560;2023-05-29T02:25:08;9.18;;;4.38;;
26946;SDS011;14501;52.282;10.560;2023-05-29T02:27:34;5.75;;;3.22;;
26946;SDS011;14501;52.282;10.560;2023-05-29T02:29:59;7.13;;;3.47;;
26946;SDS011;14501;52.282;10.560;2023-05-29T02:32:25;5.78;;;3.45;;
26946;SDS011;14501;52.282;10.560;2023-05-29T02:34:52;6.57;;;3.42;;
26946;SDS011;14501;52.282;10.560;2023-05-29T02:37:18;5.53;;;3.38;;
26946;SDS011;14501;52.282;10.560;2023-05-29T02:39:44;8.05;;;3.28;;
26946;SDS011;14501;52.282;10.560;2023-05-29T02:42:09;6.47;;;3.67;;
26946;SDS011;14501;52.282;10.560;2023-05-29T02:44:35;7.05;;;3.40;;
26946;SDS011;14501;52.282;10.560;2023-05-29T02:47:01;7.40;;;3.20;;
26946;SDS011;14501;52.282;10.560;2023-05-29T02:49:26;4.78;;;2.97;;
26946;SDS011;14501;52.282;10.560;2023-05-29T02:51:52;6.75;;;3.03;;
26946;SDS011;14501;52.282;10.560;2023-05-29T02:54:23;5.82;;;3.08;;
26946;SDS011;14501;52.282;10.560;2023-05-29T02:56:50;7.30;;;3.03;;
26946;SDS011;14501;52.282;10.560;2023-05-29T02:59:16;5.90;;;3.20;;
26946;SDS011;14501;52.282;10.560;2023-05-29T03:01:41;6.03;;;3.40;;
26946;SDS011;14501;52.282;10.560;2023-05-29T03:04:08;7.03;;;3.00;;
26946;SDS011;14501;52.282;10.560;2023-05-29T03:06:34;6.65;;;3.67;;
26946;SDS011;14501;52.282;10.560;2023-05-29T03:09:01;4.05;;;2.80;;
26946;SDS011;14501;52.282;10.560;2023-05-29T03:11:30;5.22;;;3.00;;
26946;SDS011;14501;52.282;10.560;2023-05-29T03:13:56;5.07;;;2.83;;
26946;SDS011;14501;52.282;10.560;2023-05-29T03:16:22;8.15;;;2.90;;
26946;SDS011;14501;52.282;10.560;2023-05-29T03:18:48;9.63;;;3.10;;
26946;SDS011;14501;52.282;10.560;2023-05-29T03:21:13;4.63;;;2.95;;
26946;SDS011;14501;52.282;10.560;2023-05-29T03:23:39;5.25;;;3.00;;
26946;SDS011;14501;52.282;10.560;2023-05-29T03:26:04;7.88;;;3.20;;
26946;SDS011;14501;52.282;10.560;2023-05-29T03:28:30;6.15;;;2.90;;
26946;SDS011;14501;52.282;10.560;2023-05-29T03:30:56;4.28;;;2.92;;
26946;SDS011;14501;52.282;10.560;2023-05-29T03:33:22;6.63;;;3.13;;
26946;SDS011;14501;52.282;10.560;2023-05-29T03:35:48;4.78;;;2.85;;
26946;SDS011;14501;52.282;10.560;2023-05-29T03:38:14;8.27;;;2.88;;
26946;SDS011;14501;52.282;10.560;2023-05-29T03:40:40;5.28;;;2.72;;
26946;SDS011;14501;52.282;10.560;2023-05-29T03:43:06;5.50;;;3.40;;
26946;SDS011;14501;52.282;10.560;2023-05-29T03:45:31;6.70;;;2.80;;
26946;SDS011;14501;52.282;10.560;2023-05-29T03:47:57;5.03;;;2.80;;
26946;SDS011;14501;52.282;10.560;2023-05-29T03:50:22;4.13;;;3.13;;
26946;SDS011;14501;52.282;10.560;2023-05-29T03:52:48;6.68;;;3.22;;
26946;SDS011;14501;52.282;10.560;2023-05-29T03:55:14;5.15;;;3.00;;
26946;SDS011;14501;52.282;10.560;2023-05-29T03:57:40;4.75;;;2.55;;
26946;SDS011;14501;52.282;10.560;2023-05-29T04:00:07;4.90;;;3.05;;
26946;SDS011;14501;52.282;10.560;2023-05-29T04:02:35;4.72;;;2.40;;
26946;SDS011;14501;52.282;10.560;2023-05-29T04:05:01;4.15;;;2.63;;
26946;SDS011;14501;52.282;10.560;2023-05-29T04:07:27;6.70;;;3.15;;
26946;SDS011;14501;52.282;10.560;2023-05-29T04:09:52;7.00;;;3.03;;
26946;SDS011;14501;52.282;10.560;2023-05-29T04:12:18;8.23;;;2.80;;
26946;SDS011;14501;52.282;10.560;2023-05-29T04:14:43;4.97;;;3.03;;
26946;SDS011;14501;52.282;10.560;2023-05-29T04:17:09;4.53;;;3.03;;
26946;SDS011;14501;52.282;10.560;2023-05-29T04:19:35;5.25;;;2.90;;
26946;SDS011;14501;52.282;10.560;2023-05-29T04:22:00;3.60;;;2.55;;
26946;SDS011;14501;52.282;10.560;2023-05-29T04:24:26;4.82;;;2.85;;
26946;SDS011;14501;52.282;10.560;2023-05-29T04:26:51;5.63;;;2.60;;
26946;SDS011;14501;52.282;10.560;2023-05-29T04:29:17;5.75;;;2.95;;
26946;SDS011;14501;52.282;10.560;2023-05-29T04:31:43;3.80;;;2.58;;
26946;SDS011;14501;52.282;10.560;2023-05-29T04:34:09;8.75;;;2.67;;
26946;SDS011;14501;52.282;10.560;2023-05-29T04:36:35;7.20;;;3.00;;
26946;SDS011;14501;52.282;10.560;2023-05-29T04:39:04;3.85;;;2.63;;
26946;SDS011;14501;52.282;10.560;2023-05-29T04:41:30;7.15;;;2.70;;
26946;SDS011;14501;52.282;10.560;2023-05-29T04:43:56;7.38;;;2.72;;
26946;SDS011;14501;52.282;10.560;2023-05-29T04:46:22;7.07;;;2.70;;
26946;SDS011;14501;52.282;10.560;2023-05-29T04:48:49;4.90;;;2.80;;
26946;SDS011;14501;52.282;10.560;2023-05-29T04:51:18;5.18;;;2.45;;
26946;SDS011;14501;52.282;10.560;2023-05-29T04:53:45;5.30;;;2.50;;
26946;SDS011;14501;52.282;10.560;2023-05-29T04:56:11;9.27;;;2.60;;
26946;SDS011;14501;52.282;10.560;2023-05-29T04:58:37;4.40;;;2.20;;
26946;SDS011;14501;52.282;10.560;2023-05-29T05:01:03;7.43;;;2.53;;
26946;SDS011;14501;52.282;10.560;2023-05-29T05:03:29;6.55;;;2.97;;
26946;SDS011;14501;52.282;10.560;2023-05-29T05:05:56;5.70;;;2.50;;
26946;SDS011;14501;52.282;10.560;2023-05-29T05:08:22;6.95;;;2.92;;
26946;SDS011;14501;52.282;10.560;2023-05-29T05:10:48;4.78;;;2.50;;
26946;SDS011;14501;52.282;10.560;2023-05-29T05:13:13;6.07;;;3.10;;
26946;SDS011;14501;52.282;10.560;2023-05-29T05:15:39;4.50;;;2.60;;
26946;SDS011;14501;52.282;10.560;2023-05-29T05:18:04;4.18;;;2.22;;
26946;SDS011;14501;52.282;10.560;2023-05-29T05:20:30;6.03;;;2.13;;
26946;SDS011;14501;52.282;10.560;2023-05-29T05:22:56;5.25;;;2.60;;
26946;SDS011;14501;52.282;10.560;2023-05-29T05:25:22;3.70;;;2.47;;
26946;SDS011;14501;52.282;10.560;2023-05-29T05:27:47;5.90;;;2.00;;
26946;SDS011;14501;52.282;10.560;2023-05-29T05:30:13;6.38;;;2.10;;
26946;SDS011;14501;52.282;10.560;2023-05-29T05:32:39;5.28;;;2.03;;
26946;SDS011;14501;52.282;10.560;2023-05-29T05:35:05;6.82;;;2.63;;
26946;SDS011;14501;52.282;10.560;2023-05-29T05:37:30;7.97;;;2.50;;
26946;SDS011;14501;52.282;10.560;2023-05-29T05:39:56;5.85;;;2.22;;
26946;SDS011;14501;52.282;10.560;2023-05-29T05:42:23;7.68;;;2.53;;
26946;SDS011;14501;52.282;10.560;2023-05-29T05:44:49;5.97;;;1.90;;
26946;SDS011;14501;52.282;10.560;2023-05-29T05:47:14;3.63;;;2.17;;
26946;SDS011;14501;52.282;10.560;2023-05-29T05:49:40;5.22;;;2.13;;
26946;SDS011;14501;52.282;10.560;2023-05-29T05:52:05;5.88;;;1.90;;
26946;SDS011;14501;52.282;10.560;2023-05-29T05:54:31;4.88;;;1.92;;
26946;SDS011;14501;52.282;10.560;2023-05-29T05:56:56;5.45;;;2.00;;
26946;SDS011;14501;52.282;10.560;2023-05-29T05:59:22;5.10;;;2.30;;
26946;SDS011;14501;52.282;10.560;2023-05-29T06:01:48;5.60;;;2.55;;
26946;SDS011;14501;52.282;10.560;2023-05-29T06:04:13;3.47;;;1.70;;
26946;SDS011;14501;52.282;10.560;2023-05-29T06:06:39;7.20;;;1.98;;
26946;SDS011;14501;52.282;10.560;2023-05-29T06:09:06;7.97;;;2.40;;
26946;SDS011;14501;52.282;10.560;2023-05-29T06:11:31;6.47;;;2.10;;
26946;SDS011;14501;52.282;10.560;2023-05-29T06:13:57;4.03;;;1.98;;
26946;SDS011;14501;52.282;10.560;2023-05-29T06:16:23;5.25;;;1.90;;
26946;SDS011;14501;52.282;10.560;2023-05-29T06:18:48;6.72;;;2.05;;
26946;SDS011;14501;52.282;10.560;2023-05-29T06:21:14;6.25;;;2.60;;
26946;SDS011;14501;52.282;10.560;2023-05-29T06:23:40;4.95;;;1.92;;
26946;SDS011;14501;52.282;10.560;2023-05-29T06:26:06;4.82;;;2.03;;
26946;SDS011;14501;52.282;10.560;2023-05-29T06:28:32;5.75;;;2.15;;
26946;SDS011;14501;52.282;10.560;2023-05-29T06:30:57;3.72;;;1.80;;
26946;SDS011;14501;52.282;10.560;2023-05-29T06:33:23;4.38;;;2.10;;
26946;SDS011;14501;52.282;10.560;2023-05-29T06:35:49;6.25;;;2.35;;
26946;SDS011;14501;52.282;10.560;2023-05-29T06:38:15;6.15;;;2.55;;
26946;SDS011;14501;52.282;10.560;2023-05-29T06:40:42;5.95;;;2.15;;
26946;SDS011;14501;52.282;10.560;2023-05-29T06:43:07;4.35;;;1.60;;
26946;SDS011;14501;52.282;10.560;2023-05-29T06:45:34;6.65;;;2.13;;
26946;SDS011;14501;52.282;10.560;2023-05-29T06:48:00;6.72;;;2.22;;
26946;SDS011;14501;52.282;10.560;2023-05-29T06:50:25;6.80;;;2.20;;
26946;SDS011;14501;52.282;10.560;2023-05-29T06:52:51;5.57;;;2.15;;
26946;SDS011;14501;52.282;10.560;2023-05-29T06:55:17;5.07;;;2.00;;
26946;SDS011;14501;52.282;10.560;2023-05-29T06:57:42;7.60;;;2.28;;
26946;SDS011;14501;52.282;10.560;2023-05-29T07:00:08;6.82;;;1.95;;
26946;SDS011;14501;52.282;10.560;2023-05-29T07:02:35;6.13;;;1.90;;
26946;SDS011;14501;52.282;10.560;2023-05-29T07:05:01;6.82;;;2.10;;
26946;SDS011;14501;52.282;10.560;2023-05-29T07:07:27;6.35;;;2.10;;
26946;SDS011;14501;52.282;10.560;2023-05-29T07:09:53;7.45;;;2.25;;
26946;SDS011;14501;52.282;10.560;2023-05-29T07:12:19;5.53;;;2.20;;
26946;SDS011;14501;52.282;10.560;2023-05-29T07:14:44;4.43;;;1.67;;
26946;SDS011;14501;52.282;10.560;2023-05-29T07:17:13;6.53;;;1.85;;
26946;SDS011;14501;52.282;10.560;2023-05-29T07:19:39;6.22;;;2.20;;
26946;SDS011;14501;52.282;10.560;2023-05-29T07:22:04;6.78;;;2.28;;
26946;SDS011;14501;52.282;10.560;2023-05-29T07:24:30;5.57;;;2.08;;
26946;SDS011;14501;52.282;10.560;2023-05-29T07:26:56;8.68;;;2.47;;
26946;SDS011;14501;52.282;10.560;2023-05-29T07:29:21;5.43;;;1.90;;
26946;SDS011;14501;52.282;10.560;2023-05-29T07:31:48;6.18;;;2.25;;
26946;SDS011;14501;52.282;10.560;2023-05-29T07:34:14;3.53;;;1.90;;
26946;SDS011;14501;52.282;10.560;2023-05-29T07:36:57;6.35;;;1.90;;
26946;SDS011;14501;52.282;10.560;2023-05-29T07:39:26;8.98;;;2.47;;
26946;SDS011;14501;52.282;10.560;2023-05-29T07:41:52;4.88;;;1.98;;
26946;SDS011;14501;52.282;10.560;2023-05-29T07:44:18;9.60;;;2.00;;
26946;SDS011;14501;52.282;10.560;2023-05-29T07:46:44;6.03;;;1.80;;
26946;SDS011;14501;52.282;10.560;2023-05-29T07:49:10;3.83;;;1.80;;
26946;SDS011;14501;52.282;10.560;2023-05-29T07:51:36;5.57;;;2.03;;
26946;SDS011;14501;52.282;10.560;2023-05-29T07:54:02;4.22;;;2.00;;
26946;SDS011;14501;52.282;10.560;2023-05-29T07:56:28;4.05;;;1.60;;
26946;SDS011;14501;52.282;10.560;2023-05-29T07:58:54;5.55;;;1.80;;
26946;SDS011;14501;52.282;10.560;2023-05-29T08:01:21;6.47;;;1.88;;
26946;SDS011;14501;52.282;10.560;2023-05-29T08:03:47;4.80;;;1.85;;
26946;SDS011;14501;52.282;10.560;2023-05-29T08:06:13;5.50;;;2.00;;
26946;SDS011;14501;52.282;10.560;2023-05-29T08:08:38;7.10;;;1.90;;
26946;SDS011;14501;52.282;10.560;2023-05-29T08:11:04;5.05;;;1.98;;
26946;SDS011;14501;52.282;10.560;2023-05-29T08:13:31;6.03;;;1.90;;
26946;SDS011;14501;52.282;10.560;2023-05-29T08:15:56;7.97;;;1.90;;
26946;SDS011;14501;52.282;10.560;2023-05-29T08:18:25;7.65;;;2.22;;
26946;SDS011;14501;52.282;10.560;2023-05-29T08:20:51;6.15;;;2.13;;
26946;SDS011;14501;52.282;10.560;2023-05-29T08:23:17;5.40;;;2.00;;
26946;SDS011;14501;52.282;10.560;2023-05-29T08:25:43;6.28;;;2.10;;
26946;SDS011;14501;52.282;10.560;2023-05-29T08:28:09;6.40;;;2.15;;
26946;SDS011;14501;52.282;10.560;2023-05-29T08:30:35;7.65;;;2.00;;
26946;SDS011;14501;52.282;10.560;2023-05-29T08:33:02;5.82;;;1.90;;
26946;SDS011;14501;52.282;10.560;2023-05-29T08:35:28;3.95;;;1.88;;
26946;SDS011;14501;52.282;10.560;2023-05-29T08:37:54;8.02;;;2.30;;
26946;SDS011;14501;52.282;10.560;2023-05-29T08:40:19;6.78;;;2.10;;
26946;SDS011;14501;52.282;10.560;2023-05-29T08:42:46;4.63;;;1.67;;
26946;SDS011;14501;52.282;10.560;2023-05-29T08:45:16;4.50;;;2.10;;
26946;SDS011;14501;52.282;10.560;2023-05-29T08:47:44;7.43;;;1.90;;
26946;SDS011;14501;52.282;10.560;2023-05-29T08:50:13;4.10;;;1.40;;
26946;SDS011;14501;52.282;10.560;2023-05-29T08:52:41;4.72;;;1.63;;
26946;SDS011;14501;52.282;10.560;2023-05-29T08:55:07;4.97;;;1.80;;
26946;SDS011;14501;52.282;10.560;2023-05-29T08:57:33;7.80;;;1.92;;
26946;SDS011;14501;52.282;10.560;2023-05-29T09:00:01;5.90;;;2.10;;
26946;SDS011;14501;52.282;10.560;2023-05-29T09:05:00;4.00;;;1.98;;
26946;SDS011;14501;52.282;10.560;2023-05-29T09:07:26;5.05;;;2.00;;
26946;SDS011;14501;52.282;10.560;2023-05-29T09:09:52;3.55;;;1.70;;
26946;SDS011;14501;52.282;10.560;2023-05-29T09:12:18;4.80;;;2.25;;
26946;SDS011;14501;52.282;10.560;2023-05-29T09:14:44;6.32;;;1.70;;
26946;SDS011;14501;52.282;10.560;2023-05-29T09:17:11;5.00;;;1.67;;
26946;SDS011;14501;52.282;10.560;2023-05-29T09:19:38;4.38;;;1.73;;
26946;SDS011;14501;52.282;10.560;2023-05-29T09:22:12;4.63;;;1.92;;
26946;SDS011;14501;52.282;10.560;2023-05-29T09:24:40;4.25;;;1.75;;
26946;SDS011;14501;52.282;10.560;2023-05-29T09:27:09;5.75;;;1.80;;
26946;SDS011;14501;52.282;10.560;2023-05-29T09:29:38;8.75;;;1.85;;
26946;SDS011;14501;52.282;10.560;2023-05-29T09:32:09;4.47;;;1.90;;
26946;SDS011;14501;52.282;10.560;2023-05-29T09:34:36;3.97;;;1.60;;
26946;SDS011;14501;52.282;10.560;2023-05-29T09:37:06;5.30;;;1.73;;
26946;SDS011;14501;52.282;10.560;2023-05-29T09:39:54;5.88;;;1.80;;
26946;SDS011;14501;52.282;10.560;2023-05-29T09:42:19;5.85;;;1.73;;
26946;SDS011;14501;52.282;10.560;2023-05-29T09:44:46;4.30;;;1.63;;
26946;SDS011;14501;52.282;10.560;2023-05-29T09:47:16;5.63;;;2.20;;
26946;SDS011;14501;52.282;10.560;2023-05-29T09:49:43;4.43;;;1.70;;
26946;SDS011;14501;52.282;10.560;2023-05-29T09:52:13;4.43;;;1.80;;
26946;SDS011;14501;52.282;10.560;2023-05-29T09:54:43;4.60;;;2.00;;
26946;SDS011;14501;52.282;10.560;2023-05-29T09:57:12;6.30;;;1.92;;
26946;SDS011;14501;52.282;10.560;2023-05-29T09:59:41;5.53;;;1.98;;
26946;SDS011;14501;52.282;10.560;2023-05-29T10:02:10;4.82;;;1.80;;
26946;SDS011;14501;52.282;10.560;2023-05-29T10:04:38;3.40;;;1.67;;
26946;SDS011;14501;52.282;10.560;2023-05-29T10:07:27;3.05;;;1.55;;
26946;SDS011;14501;52.282;10.560;2023-05-29T10:10:01;8.15;;;1.75;;
26946;SDS011;14501;52.282;10.560;2023-05-29T10:12:32;3.65;;;1.63;;
26946;SDS011;14501;52.282;10.560;2023-05-29T10:15:02;7.25;;;2.10;;
26946;SDS011;14501;52.282;10.560;2023-05-29T10:17:32;4.20;;;1.85;;
26946;SDS011;14501;52.282;10.560;2023-05-29T10:20:01;4.32;;;1.83;;
26946;SDS011;14501;52.282;10.560;2023-05-29T10:22:29;3.60;;;1.58;;
26946;SDS011;14501;52.282;10.560;2023-05-29T10:24:56;2.97;;;1.60;;
26946;SDS011;14501;52.282;10.560;2023-05-29T10:27:23;5.18;;;1.80;;
26946;SDS011;14501;52.282;10.560;2023-05-29T10:29:52;3.78;;;1.75;;
26946;SDS011;14501;52.282;10.560;2023-05-29T10:32:32;3.75;;;1.65;;
26946;SDS011;14501;52.282;10.560;2023-05-29T10:35:13;3.45;;;1.70;;
26946;SDS011;14501;52.282;10.560;2023-05-29T10:37:47;6.30;;;1.65;;
26946;SDS011;14501;52.282;10.560;2023-05-29T10:40:24;5.63;;;1.80;;
26946;SDS011;14501;52.282;10.560;2023-05-29T10:42:51;5.00;;;1.52;;
26946;SDS011;14501;52.282;10.560;2023-05-29T10:48:42;5.20;;;1.80;;
26946;SDS011;14501;52.282;10.560;2023-05-29T10:50:43;6.38;;;2.15;;
26946;SDS011;14501;52.282;10.560;2023-05-29T10:53:14;5.07;;;1.65;;
26946;SDS011;14501;52.282;10.560;2023-05-29T10:55:42;4.30;;;1.92;;
26946;SDS011;14501;52.282;10.560;2023-05-29T10:58:13;5.88;;;2.20;;
26946;SDS011;14501;52.282;10.560;2023-05-29T11:00:49;4.03;;;1.50;;
26946;SDS011;14501;52.282;10.560;2023-05-29T11:03:19;2.35;;;1.27;;
26946;SDS011;14501;52.282;10.560;2023-05-29T11:05:56;3.40;;;1.50;;
26946;SDS011;14501;52.282;10.560;2023-05-29T11:08:36;6.57;;;2.00;;
26946;SDS011;14501;52.282;10.560;2023-05-29T11:11:13;5.88;;;2.03;;
26946;SDS011;14501;52.282;10.560;2023-05-29T11:13:40;5.50;;;2.10;;
26946;SDS011;14501;52.282;10.560;2023-05-29T11:16:14;6.07;;;2.00;;
26946;SDS011;14501;52.282;10.560;2023-05-29T11:18:51;4.68;;;2.15;;
26946;SDS011;14501;52.282;10.560;2023-05-29T11:24:03;8.00;;;2.30;;
26946;SDS011;14501;52.282;10.560;2023-05-29T11:26:32;6.32;;;2.13;;
26946;SDS011;14501;52.282;10.560;2023-05-29T11:29:07;5.28;;;1.80;;
26946;SDS011;14501;52.282;10.560;2023-05-29T11:31:36;4.13;;;1.58;;
26946;SDS011;14501;52.282;10.560;2023-05-29T11:34:04;6.25;;;1.50;;
26946;SDS011;14501;52.282;10.560;2023-05-29T11:36:34;7.35;;;2.28;;
26946;SDS011;14501;52.282;10.560;2023-05-29T11:39:00;2.83;;;1.75;;
26946;SDS011;14501;52.282;10.560;2023-05-29T11:41:26;4.65;;;1.80;;
26946;SDS011;14501;52.282;10.560;2023-05-29T11:46:24;8.43;;;2.45;;
26946;SDS011;14501;52.282;10.560;2023-05-29T11:48:51;7.10;;;2.22;;
26946;SDS011;14501;52.282;10.560;2023-05-29T11:51:17;5.07;;;2.22;;
26946;SDS011;14501;52.282;10.560;2023-05-29T11:53:43;6.07;;;2.17;;
26946;SDS011;14501;52.282;10.560;2023-05-29T11:56:12;6.55;;;2.42;;
26946;SDS011;14501;52.282;10.560;2023-05-29T11:58:38;6.35;;;1.90;;
26946;SDS011;14501;52.282;10.560;2023-05-29T12:01:04;6.05;;;2.15;;
26946;SDS011;14501;52.282;10.560;2023-05-29T12:03:31;6.07;;;1.88;;
26946;SDS011;14501;52.282;10.560;2023-05-29T12:06:02;5.80;;;2.20;;
26946;SDS011;14501;52.282;10.560;2023-05-29T12:08:28;6.63;;;2.05;;
26946;SDS011;14501;52.282;10.560;2023-05-29T12:10:54;4.18;;;1.90;;
26946;SDS011;14501;52.282;10.560;2023-05-29T12:13:19;4.18;;;1.90;;
26946;SDS011;14501;52.282;10.560;2023-05-29T12:15:46;3.15;;;1.83;;
26946;SDS011;14501;52.282;10.560;2023-05-29T12:18:13;5.85;;;2.30;;
26946;SDS011;14501;52.282;10.560;2023-05-29T12:20:40;6.40;;;1.98;;
26946;SDS011;14501;52.282;10.560;2023-05-29T12:23:05;3.33;;;1.75;;
26946;SDS011;14501;52.282;10.560;2023-05-29T12:25:33;3.72;;;1.85;;
26946;SDS011;14501;52.282;10.560;2023-05-29T12:28:02;4.53;;;1.90;;
26946;SDS011;14501;52.282;10.560;2023-05-29T12:30:27;5.18;;;1.88;;
26946;SDS011;14501;52.282;10.560;2023-05-29T12:32:53;5.72;;;2.17;;
26946;SDS011;14501;52.282;10.560;2023-05-29T12:35:22;3.53;;;1.85;;
26946;SDS011;14501;52.282;10.560;2023-05-29T12:37:57;2.50;;;1.80;;
26946;SDS011;14501;52.282;10.560;2023-05-29T12:40:24;5.50;;;2.05;;
26946;SDS011;14501;52.282;10.560;2023-05-29T12:43:09;5.13;;;2.08;;
26946;SDS011;14501;52.282;10.560;2023-05-29T12:45:35;5.45;;;1.67;;
26946;SDS011;14501;52.282;10.560;2023-05-29T12:48:02;4.68;;;1.88;;
26946;SDS011;14501;52.282;10.560;2023-05-29T12:50:29;5.93;;;1.80;;
26946;SDS011;14501;52.282;10.560;2023-05-29T12:55:28;6.30;;;2.60;;
26946;SDS011;14501;52.282;10.560;2023-05-29T12:57:55;7.15;;;1.45;;
26946;SDS011;14501;52.282;10.560;2023-05-29T13:00:22;4.03;;;1.92;;
26946;SDS011;14501;52.282;10.560;2023-05-29T13:02:48;4.70;;;2.10;;
26946;SDS011;14501;52.282;10.560;2023-05-29T13:05:14;6.35;;;2.20;;
26946;SDS011;14501;52.282;10.560;2023-05-29T13:07:41;4.22;;;1.92;;
26946;SDS011;14501;52.282;10.560;2023-05-29T13:10:07;4.65;;;1.90;;
26946;SDS011;14501;52.282;10.560;2023-05-29T13:12:34;5.93;;;2.15;;
26946;SDS011;14501;52.282;10.560;2023-05-29T13:15:00;2.63;;;1.98;;
26946;SDS011;14501;52.282;10.560;2023-05-29T13:17:26;10.25;;;1.92;;
26946;SDS011;14501;52.282;10.560;2023-05-29T13:19:52;4.88;;;1.50;;
26946;SDS011;14501;52.282;10.560;2023-05-29T13:22:18;3.08;;;1.95;;
26946;SDS011;14501;52.282;10.560;2023-05-29T13:24:45;7.55;;;1.73;;
26946;SDS011;14501;52.282;10.560;2023-05-29T13:27:11;4.45;;;1.92;;
26946;SDS011;14501;52.282;10.560;2023-05-29T13:29:41;4.45;;;2.03;;
26946;SDS011;14501;52.282;10.560;2023-05-29T13:32:08;5.60;;;2.03;;
26946;SDS011;14501;52.282;10.560;2023-05-29T13:34:33;6.53;;;2.00;;
26946;SDS011;14501;52.282;10.560;2023-05-29T13:37:00;6.35;;;1.95;;
26946;SDS011;14501;52.282;10.560;2023-05-29T13:39:27;8.95;;;2.15;;
26946;SDS011;14501;52.282;10.560;2023-05-29T13:41:53;3.83;;;1.85;;
26946;SDS011;14501;52.282;10.560;2023-05-29T13:44:19;4.10;;;1.98;;
26946;SDS011;14501;52.282;10.560;2023-05-29T13:46:45;4.22;;;1.80;;
26946;SDS011;14501;52.282;10.560;2023-05-29T13:49:10;8.00;;;2.17;;
26946;SDS011;14501;52.282;10.560;2023-05-29T13:51:36;7.38;;;2.40;;
26946;SDS011;14501;52.282;10.560;2023-05-29T13:54:02;6.22;;;1.92;;
26946;SDS011;14501;52.282;10.560;2023-05-29T13:56:29;5.75;;;2.33;;
26946;SDS011;14501;52.282;10.560;2023-05-29T13:58:57;3.53;;;1.77;;
26946;SDS011;14501;52.282;10.560;2023-05-29T14:01:25;6.22;;;2.05;;
26946;SDS011;14501;52.282;10.560;2023-05-29T14:03:51;6.40;;;2.05;;
26946;SDS011;14501;52.282;10.560;2023-05-29T14:06:16;4.38;;;2.28;;
26946;SDS011;14501;52.282;10.560;2023-05-29T14:08:42;5.55;;;2.25;;
26946;SDS011;14501;52.282;10.560;2023-05-29T14:11:08;5.35;;;2.08;;
26946;SDS011;14501;52.282;10.560;2023-05-29T14:13:34;4.72;;;2.20;;
26946;SDS011;14501;52.282;10.560;2023-05-29T14:15:59;4.35;;;2.03;;
26946;SDS011;14501;52.282;10.560;2023-05-29T14:18:25;5.50;;;1.67;;
26946;SDS011;14501;52.282;10.560;2023-05-29T14:20:51;5.93;;;2.05;;
26946;SDS011;14501;52.282;10.560;2023-05-29T14:23:16;6.75;;;2.13;;
26946;SDS011;14501;52.282;10.560;2023-05-29T14:25:42;5.53;;;2.50;;
26946;SDS011;14501;52.282;10.560;2023-05-29T14:28:09;6.43;;;2.10;;
26946;SDS011;14501;52.282;10.560;2023-05-29T14:30:36;5.63;;;1.98;;
26946;SDS011;14501;52.282;10.560;2023-05-29T14:33:02;3.90;;;2.00;;
26946;SDS011;14501;52.282;10.560;2023-05-29T14:35:27;7.78;;;2.03;;
26946;SDS011;14501;52.282;10.560;2023-05-29T14:37:54;6.25;;;2.13;;
26946;SDS011;14501;52.282;10.560;2023-05-29T14:40:19;3.75;;;1.73;;
26946;SDS011;14501;52.282;10.560;2023-05-29T14:42:45;5.78;;;1.90;;
26946;SDS011;14501;52.282;10.560;2023-05-29T14:45:11;6.60;;;2.30;;
26946;SDS011;14501;52.282;10.560;2023-05-29T14:47:36;4.53;;;2.05;;
26946;SDS011;14501;52.282;10.560;2023-05-29T14:50:02;5.60;;;1.80;;
26946;SDS011;14501;52.282;10.560;2023-05-29T14:52:31;6.43;;;1.92;;
26946;SDS011;14501;52.282;10.560;2023-05-29T14:54:59;7.15;;;2.10;;
26946;SDS011;14501;52.282;10.560;2023-05-29T14:57:32;3.70;;;1.83;;